createdAt,value
2022-12-18T00:01:35.304Z,1.00
2022-12-18T00:04:02.982Z,0.90
2022-12-18T00:06:30.462Z,1.15
2022-12-18T00:08:57.941Z,1.05
2022-12-18T00:11:25.530Z,0.60
2022-12-18T00:13:52.533Z,1.15
2022-12-18T00:16:23.507Z,0.90
2022-12-18T00:18:51.105Z,0.73
2022-12-18T00:21:17.585Z,0.90
2022-12-18T00:23:44.846Z,0.93
2022-12-18T00:26:12.529Z,0.68
2022-12-18T00:28:38.997Z,0.50
2022-12-18T00:31:07.383Z,0.88
2022-12-18T00:33:34.672Z,1.02
2022-12-18T00:36:05.720Z,0.88
2022-12-18T00:38:32.195Z,0.77
2022-12-18T00:40:58.702Z,0.73
2022-12-18T00:43:25.443Z,0.93
2022-12-18T00:45:51.977Z,0.75
2022-12-18T00:48:18.533Z,0.50
2022-12-18T00:50:45.088Z,0.55
2022-12-18T00:53:12.086Z,0.77
2022-12-18T00:55:39.891Z,0.50
2022-12-18T00:58:06.501Z,0.65
2022-12-18T01:00:33.105Z,0.60
2022-12-18T01:03:00.044Z,0.88
2022-12-18T01:05:26.629Z,0.50
2022-12-18T01:07:53.154Z,0.63
2022-12-18T01:10:19.846Z,0.80
2022-12-18T01:12:46.387Z,0.80
2022-12-18T01:15:13.674Z,0.60
2022-12-18T01:17:40.251Z,0.65
2022-12-18T01:20:07.195Z,0.50
2022-12-18T01:22:33.654Z,1.60
2022-12-18T01:25:00.157Z,0.80
2022-12-18T01:27:26.833Z,0.68
2022-12-18T01:29:53.589Z,0.90
2022-12-18T01:32:20.802Z,0.90
2022-12-18T01:34:47.273Z,0.68
2022-12-18T01:37:13.716Z,0.77
2022-12-18T01:39:40.277Z,0.65
2022-12-18T01:42:16.076Z,0.93
2022-12-18T01:44:55.780Z,0.70
2022-12-18T01:47:29.655Z,0.90
2022-12-18T01:49:56.970Z,0.80
2022-12-18T01:52:25.388Z,0.70
2022-12-18T01:54:52.584Z,1.05
2022-12-18T01:57:19.124Z,1.05
2022-12-18T01:59:48.785Z,1.10
2022-12-18T02:02:16.702Z,1.50
2022-12-18T02:04:49.224Z,1.10
2022-12-18T02:07:34.893Z,0.90
2022-12-18T02:10:04.870Z,1.38
2022-12-18T02:12:36.210Z,2.00
2022-12-18T02:15:23.445Z,1.70
2022-12-18T02:17:58.526Z,1.38
2022-12-18T02:21:00.589Z,1.20
2022-12-18T02:23:36.213Z,1.20
2022-12-18T02:26:03.489Z,1.13
2022-12-18T02:28:32.733Z,1.60
2022-12-18T02:31:01.731Z,1.30
2022-12-18T02:33:28.935Z,1.42
2022-12-18T02:35:56.508Z,1.38
2022-12-18T02:38:23.132Z,1.27
2022-12-18T02:40:50.643Z,1.35
2022-12-18T02:43:17.211Z,1.38
2022-12-18T02:45:51.902Z,1.08
2022-12-18T02:48:19.305Z,1.13
2022-12-18T02:50:51.526Z,1.30
2022-12-18T02:53:23.181Z,1.27
2022-12-18T02:55:58.594Z,1.08
2022-12-18T02:58:32.353Z,1.33
2022-12-18T03:00:58.798Z,1.05
2022-12-18T03:03:31.411Z,0.90
2022-12-18T03:06:01.144Z,1.15
2022-12-18T03:08:32.593Z,0.95
2022-12-18T03:11:01.620Z,0.93
2022-12-18T03:13:48.707Z,0.40
2022-12-18T03:16:21.005Z,0.90
2022-12-18T03:18:56.112Z,0.80
2022-12-18T03:21:24.049Z,0.90
2022-12-18T03:23:52.188Z,0.60
2022-12-18T03:26:20.824Z,0.80
2022-12-18T03:28:51.031Z,1.05
2022-12-18T03:31:18.768Z,1.00
2022-12-18T03:33:48.313Z,0.82
2022-12-18T03:36:15.253Z,0.73
2022-12-18T03:38:41.966Z,0.50
2022-12-18T03:41:17.133Z,0.80
2022-12-18T03:43:49.413Z,0.80
2022-12-18T03:46:27.618Z,0.70
2022-12-18T03:48:57.128Z,0.70
2022-12-18T03:51:38.054Z,0.68
2022-12-18T03:54:06.124Z,0.75
2022-12-18T03:56:36.682Z,1.20
2022-12-18T03:59:04.477Z,0.98
2022-12-18T04:01:35.756Z,0.70
2022-12-18T04:04:03.327Z,0.60
2022-12-18T04:06:30.437Z,1.00
2022-12-18T04:08:58.441Z,1.00
2022-12-18T04:11:24.882Z,0.63
2022-12-18T04:13:51.370Z,0.60
2022-12-18T04:16:17.873Z,0.75
2022-12-18T04:18:44.390Z,0.82
2022-12-18T04:21:11.292Z,0.65
2022-12-18T04:23:38.286Z,0.60
2022-12-18T04:26:05.084Z,0.60
2022-12-18T04:28:31.573Z,0.80
2022-12-18T04:30:58.203Z,0.70
2022-12-18T04:33:24.732Z,0.80
2022-12-18T04:35:51.846Z,0.57
2022-12-18T04:38:18.367Z,0.70
2022-12-18T04:40:45.181Z,0.70
2022-12-18T04:43:11.958Z,0.70
2022-12-18T04:45:38.759Z,0.70
2022-12-18T04:48:07.222Z,1.08
2022-12-18T04:50:33.693Z,0.65
2022-12-18T04:53:00.131Z,1.10
2022-12-18T04:55:26.847Z,1.02
2022-12-18T04:57:53.394Z,0.88
2022-12-18T05:00:20.122Z,1.10
2022-12-18T05:02:46.965Z,1.10
2022-12-18T05:05:13.504Z,1.60
2022-12-18T05:07:40.102Z,1.30
2022-12-18T05:10:06.783Z,1.30
2022-12-18T05:12:33.289Z,1.20
2022-12-18T05:14:59.738Z,1.20
2022-12-18T05:17:26.242Z,1.13
2022-12-18T05:19:52.686Z,1.10
2022-12-18T05:22:19.154Z,1.27
2022-12-18T05:24:45.690Z,1.40
2022-12-18T05:27:12.453Z,1.30
2022-12-18T05:29:38.903Z,1.20
2022-12-18T05:32:05.433Z,1.30
2022-12-18T05:34:32.164Z,1.50
2022-12-18T05:36:58.781Z,1.30
2022-12-18T05:39:25.238Z,1.60
2022-12-18T05:41:51.697Z,1.90
2022-12-18T05:44:18.320Z,2.08
2022-12-18T05:46:44.890Z,2.03
2022-12-18T05:49:11.486Z,2.55
2022-12-18T05:51:38.038Z,2.70
2022-12-18T05:54:04.686Z,2.83
2022-12-18T05:56:32.245Z,3.55
2022-12-18T05:58:58.905Z,2.80
2022-12-18T06:01:27.434Z,3.08
2022-12-18T06:03:54.272Z,2.95
2022-12-18T06:06:22.047Z,3.15
2022-12-18T06:08:49.025Z,3.72
2022-12-18T06:11:17.738Z,3.90
2022-12-18T06:13:44.218Z,3.03
2022-12-18T06:16:10.772Z,4.07
2022-12-18T06:18:37.354Z,3.58
2022-12-18T06:21:03.855Z,3.80
2022-12-18T06:23:30.374Z,4.03
2022-12-18T06:25:57.032Z,4.47
2022-12-18T06:28:23.662Z,3.88
2022-12-18T06:30:50.456Z,3.55
2022-12-18T06:33:17.444Z,4.60
2022-12-18T06:35:43.992Z,4.30
2022-12-18T06:38:10.473Z,5.00
2022-12-18T06:40:38.181Z,4.45
2022-12-18T06:43:04.653Z,4.93
2022-12-18T06:45:31.179Z,4.53
2022-12-18T06:47:57.763Z,4.65
2022-12-18T06:50:25.345Z,6.80
2022-12-18T06:52:51.878Z,6.00
2022-12-18T06:55:18.473Z,7.80
2022-12-18T06:57:44.937Z,5.60
2022-12-18T07:00:11.700Z,5.90
2022-12-18T07:02:38.344Z,8.32
2022-12-18T07:05:10.446Z,8.13
2022-12-18T07:07:37.569Z,7.75
2022-12-18T07:10:04.240Z,7.40
2022-12-18T07:12:30.774Z,7.03
2022-12-18T07:14:57.237Z,8.90
2022-12-18T07:17:23.739Z,8.45
2022-12-18T07:19:50.234Z,9.27
2022-12-18T07:22:16.709Z,7.18
2022-12-18T07:24:43.279Z,7.82
2022-12-18T07:27:09.960Z,6.40
2022-12-18T07:29:36.930Z,7.82
2022-12-18T07:32:04.557Z,5.85
2022-12-18T07:34:31.115Z,6.55
2022-12-18T07:37:00.711Z,8.25
2022-12-18T07:39:27.345Z,7.05
2022-12-18T07:42:12.401Z,8.38
2022-12-18T07:44:38.927Z,8.25
2022-12-18T07:47:09.145Z,8.18
2022-12-18T07:49:38.360Z,7.93
2022-12-18T07:52:04.883Z,7.90
2022-12-18T07:54:31.338Z,6.05
2022-12-18T07:56:57.789Z,6.78
2022-12-18T07:59:24.274Z,6.93
2022-12-18T08:01:50.801Z,5.68
2022-12-18T08:04:17.593Z,5.18
2022-12-18T08:06:47.764Z,4.60
2022-12-18T08:09:14.968Z,4.45
2022-12-18T08:11:41.444Z,4.57
2022-12-18T08:14:07.940Z,5.03
2022-12-18T08:16:34.727Z,5.47
2022-12-18T08:19:01.292Z,3.95
2022-12-18T08:21:29.446Z,4.03
2022-12-18T08:23:56.815Z,4.85
2022-12-18T08:26:23.429Z,4.38
2022-12-18T08:28:50.695Z,5.47
2022-12-18T08:31:17.553Z,4.57
2022-12-18T08:33:44.605Z,4.47
2022-12-18T08:36:11.337Z,4.55
2022-12-18T08:38:38.086Z,4.47
2022-12-18T08:41:05.731Z,4.18
2022-12-18T08:43:51.043Z,4.35
2022-12-18T08:46:18.144Z,4.18
2022-12-18T08:48:45.174Z,2.85
2022-12-18T08:51:12.041Z,2.90
2022-12-18T08:53:39.065Z,4.07
2022-12-18T08:56:06.054Z,2.65
2022-12-18T08:58:32.539Z,2.55
2022-12-18T09:01:03.200Z,2.35
2022-12-18T09:03:29.813Z,2.83
2022-12-18T09:05:56.351Z,2.45
2022-12-18T09:08:22.806Z,2.05
2022-12-18T09:10:50.103Z,2.30
2022-12-18T09:13:17.014Z,2.05
2022-12-18T09:15:44.426Z,2.00
2022-12-18T09:18:10.930Z,2.70
2022-12-18T09:20:37.828Z,2.28
2022-12-18T09:23:04.827Z,2.22
2022-12-18T09:25:35.176Z,2.65
2022-12-18T09:28:01.777Z,2.50
2022-12-18T09:30:28.401Z,3.88
2022-12-18T09:32:55.026Z,2.47
2022-12-18T09:35:21.649Z,2.50
2022-12-18T09:37:48.237Z,2.95
2022-12-18T09:40:15.632Z,2.92
2022-12-18T09:42:45.617Z,2.70
2022-12-18T09:45:14.573Z,2.25
2022-12-18T09:47:41.730Z,2.13
2022-12-18T09:50:20.770Z,2.42
2022-12-18T09:52:50.245Z,3.17
2022-12-18T09:55:22.757Z,2.65
2022-12-18T09:57:52.113Z,2.65
2022-12-18T10:00:22.443Z,3.08
2022-12-18T10:02:49.626Z,2.90
2022-12-18T10:05:25.789Z,3.10
2022-12-18T10:08:27.674Z,4.20
2022-12-18T10:10:55.268Z,3.42
2022-12-18T10:13:25.216Z,4.97
2022-12-18T10:16:04.856Z,4.75
2022-12-18T10:18:31.321Z,5.38
2022-12-18T10:21:04.834Z,4.40
2022-12-18T10:23:46.419Z,5.07
2022-12-18T10:26:14.640Z,5.40
2022-12-18T10:28:42.775Z,5.30
2022-12-18T10:31:18.105Z,4.65
2022-12-18T10:33:44.917Z,4.22
2022-12-18T10:36:11.395Z,5.35
2022-12-18T10:38:38.178Z,5.22
2022-12-18T10:41:06.224Z,4.75
2022-12-18T10:43:37.613Z,6.45
2022-12-18T10:46:10.146Z,4.30
2022-12-18T10:48:48.558Z,3.72
2022-12-18T10:51:34.585Z,4.60
2022-12-18T10:54:13.937Z,3.47
2022-12-18T10:56:40.602Z,3.28
2022-12-18T10:59:09.801Z,3.85
2022-12-18T11:01:59.007Z,3.97
2022-12-18T11:04:26.857Z,3.30
2022-12-18T11:07:00.709Z,3.15
2022-12-18T11:09:30.352Z,3.78
2022-12-18T11:11:57.953Z,4.07
2022-12-18T11:14:24.543Z,3.72
2022-12-18T11:19:40.762Z,3.67
2022-12-18T11:22:30.211Z,3.60
2022-12-18T11:25:29.992Z,5.07
2022-12-18T11:27:49.522Z,4.18
2022-12-18T11:30:23.987Z,3.15
2022-12-18T11:33:02.950Z,3.88
2022-12-18T11:35:47.864Z,3.42
2022-12-18T11:38:20.360Z,4.05
2022-12-18T11:40:49.274Z,3.03
2022-12-18T11:43:25.008Z,4.45
2022-12-18T11:45:56.082Z,3.38
2022-12-18T11:48:28.226Z,2.95
2022-12-18T11:50:58.518Z,2.97
2022-12-18T11:53:25.939Z,2.75
2022-12-18T11:55:55.134Z,2.20
2022-12-18T11:58:40.699Z,2.70
2022-12-18T12:01:26.098Z,2.40
2022-12-18T12:03:52.657Z,3.00
2022-12-18T12:06:19.210Z,2.20
2022-12-18T12:08:51.845Z,2.45
2022-12-18T12:11:24.501Z,3.38
2022-12-18T12:14:03.357Z,2.97
2022-12-18T12:16:32.891Z,2.08
2022-12-18T12:19:08.196Z,1.80
2022-12-18T12:21:41.764Z,3.00
2022-12-18T12:24:11.354Z,2.70
2022-12-18T12:26:49.250Z,2.50
2022-12-18T12:29:28.070Z,2.40
2022-12-18T12:31:54.543Z,3.22
2022-12-18T12:34:24.125Z,2.70
2022-12-18T12:36:53.726Z,3.05
2022-12-18T12:39:23.410Z,3.63
2022-12-18T12:42:08.653Z,3.58
2022-12-18T12:44:39.481Z,3.45
2022-12-18T12:47:15.909Z,3.22
2022-12-18T12:49:48.741Z,4.97
2022-12-18T12:52:26.508Z,3.97
2022-12-18T12:54:53.276Z,3.95
2022-12-18T12:57:24.830Z,4.13
2022-12-18T13:00:04.633Z,4.78
2022-12-18T13:02:53.714Z,4.05
2022-12-18T13:05:20.155Z,4.90
2022-12-18T13:08:07.585Z,4.82
2022-12-18T13:10:34.315Z,6.07
2022-12-18T13:13:00.893Z,5.05
2022-12-18T13:15:39.841Z,5.10
2022-12-18T13:18:12.658Z,5.13
2022-12-18T13:20:49.190Z,6.32
2022-12-18T13:23:27.129Z,6.38
2022-12-18T13:25:54.852Z,6.68
2022-12-18T13:28:33.720Z,6.07
2022-12-18T13:31:03.848Z,5.22
2022-12-18T13:33:30.281Z,5.28
2022-12-18T13:36:15.996Z,5.53
2022-12-18T13:38:43.983Z,6.88
2022-12-18T13:41:19.799Z,5.20
2022-12-18T13:43:47.403Z,6.18
2022-12-18T14:09:47.365Z,4.85
2022-12-18T14:12:43.704Z,5.85
2022-12-18T14:15:31.784Z,6.72
2022-12-18T14:17:59.660Z,5.40
2022-12-18T14:20:27.145Z,5.93
2022-12-18T14:22:53.893Z,6.40
2022-12-18T14:25:20.377Z,6.57
2022-12-18T14:27:51.920Z,6.85
2022-12-18T14:30:25.959Z,5.28
2022-12-18T14:39:38.069Z,5.70
2022-12-18T14:42:04.559Z,4.22
2022-12-18T14:44:44.225Z,4.85
2022-12-18T14:47:17.352Z,5.13
2022-12-18T14:49:44.846Z,5.22
2022-12-18T14:52:26.058Z,5.80
2022-12-18T14:54:53.299Z,4.72
2022-12-18T14:57:39.001Z,6.72
2022-12-18T15:00:06.652Z,4.65
2022-12-18T15:02:36.445Z,5.80
2022-12-18T15:05:17.348Z,5.03
2022-12-18T15:07:46.130Z,4.55
2022-12-18T15:10:24.013Z,5.03
2022-12-18T15:12:51.783Z,5.40
2022-12-18T15:15:43.707Z,6.43
2022-12-18T15:18:13.880Z,5.55
2022-12-18T15:21:00.132Z,5.07
2022-12-18T15:23:28.659Z,7.38
2022-12-18T15:26:03.259Z,4.70
2022-12-18T15:28:33.451Z,4.75
2022-12-18T15:31:02.830Z,4.13
2022-12-18T15:33:34.335Z,4.78
2022-12-18T15:36:22.018Z,4.60
2022-12-18T15:38:54.181Z,4.78
2022-12-18T15:41:24.905Z,4.40
2022-12-18T15:43:52.752Z,3.63
2022-12-18T15:46:23.296Z,3.92
2022-12-18T15:48:55.429Z,4.13
2022-12-18T15:51:32.924Z,4.72
2022-12-18T15:54:00.596Z,4.13
2022-12-18T15:56:45.914Z,3.72
2022-12-18T15:59:14.539Z,4.40
2022-12-18T16:01:43.716Z,4.03
2022-12-18T16:04:13.333Z,3.95
2022-12-18T16:07:05.350Z,3.83
2022-12-18T16:09:26.916Z,5.25
2022-12-18T16:11:53.561Z,4.45
2022-12-18T16:14:21.987Z,4.53
2022-12-18T16:16:50.916Z,4.25
2022-12-18T16:19:18.100Z,3.97
2022-12-18T16:21:45.102Z,4.68
2022-12-18T16:24:18.739Z,4.03
2022-12-18T16:26:45.286Z,4.47
2022-12-18T16:29:11.918Z,3.83
2022-12-18T16:31:38.839Z,5.05
2022-12-18T16:34:23.620Z,5.45
2022-12-18T16:36:55.581Z,4.10
2022-12-18T16:39:24.433Z,4.75
2022-12-18T16:41:51.654Z,4.28
2022-12-18T16:44:18.944Z,5.70
2022-12-18T16:46:48.286Z,4.18
2022-12-18T16:49:16.157Z,5.50
2022-12-18T16:51:43.071Z,5.80
2022-12-18T16:54:14.662Z,4.32
2022-12-18T16:56:44.277Z,5.53
2022-12-18T16:59:11.594Z,5.32
2022-12-18T17:01:38.485Z,5.97
2022-12-18T17:04:06.162Z,5.70
2022-12-18T17:06:34.846Z,7.82
2022-12-18T17:09:03.088Z,5.72
2022-12-18T17:11:31.426Z,5.63
2022-12-18T17:13:58.562Z,5.43
2022-12-18T17:16:26.966Z,5.07
2022-12-18T17:18:54.070Z,4.90
2022-12-18T17:21:20.719Z,5.07
2022-12-18T17:23:47.184Z,6.80
2022-12-18T17:26:14.063Z,5.78
2022-12-18T17:28:41.621Z,7.70
2022-12-18T17:31:12.257Z,5.75
2022-12-18T17:33:39.096Z,4.72
2022-12-18T17:36:05.926Z,4.43
2022-12-18T17:38:32.444Z,4.07
2022-12-18T17:41:02.534Z,5.75
2022-12-18T17:43:29.086Z,6.28
2022-12-18T17:45:55.736Z,4.85
2022-12-18T17:48:23.577Z,5.55
2022-12-18T17:50:51.506Z,4.55
2022-12-18T17:53:17.990Z,5.47
2022-12-18T17:55:44.449Z,5.38
2022-12-18T17:58:10.962Z,5.05
2022-12-18T18:00:39.233Z,7.22
2022-12-18T18:03:05.777Z,6.75
2022-12-18T18:05:32.311Z,5.32
2022-12-18T18:07:59.024Z,5.13
2022-12-18T18:10:25.493Z,4.80
2022-12-18T18:13:10.361Z,7.80
2022-12-18T18:15:38.811Z,6.93
2022-12-18T18:18:06.420Z,5.43
2022-12-18T18:20:32.871Z,9.93
2022-12-18T18:22:59.462Z,70.93
2022-12-18T18:25:26.240Z,68.50
2022-12-18T18:27:53.109Z,19.65
2022-12-18T18:30:19.732Z,120.07
2022-12-18T18:32:46.609Z,67.07
2022-12-18T18:35:37.488Z,26.38
2022-12-18T18:37:59.719Z,17.17
2022-12-18T18:40:26.195Z,23.25
2022-12-18T18:42:55.772Z,15.90
2022-12-18T18:45:22.259Z,9.95
2022-12-18T18:47:48.772Z,8.00
2022-12-18T18:50:15.254Z,12.15
2022-12-18T18:52:41.681Z,8.20
2022-12-18T18:55:22.318Z,17.88
2022-12-18T18:57:51.830Z,11.88
2022-12-18T19:00:18.413Z,11.23
2022-12-18T19:02:45.016Z,9.90
2022-12-18T19:05:11.555Z,10.43
2022-12-18T19:07:38.031Z,10.35
2022-12-18T19:10:05.572Z,23.83
2022-12-18T19:12:51.116Z,26.35
2022-12-18T19:15:17.625Z,20.05
2022-12-18T19:17:47.078Z,27.42
2022-12-18T19:20:14.460Z,14.73
2022-12-18T19:22:40.948Z,11.98
2022-12-18T19:25:09.383Z,16.70
2022-12-18T19:27:38.929Z,10.65
2022-12-18T19:30:05.658Z,15.23
2022-12-18T19:32:32.220Z,12.68
2022-12-18T19:34:59.200Z,13.75
2022-12-18T19:37:25.932Z,14.80
2022-12-18T19:39:52.790Z,11.80
2022-12-18T19:42:25.536Z,12.73
2022-12-18T19:44:54.696Z,14.90
2022-12-18T19:47:21.188Z,13.82
2022-12-18T19:49:47.708Z,11.15
2022-12-18T19:52:16.172Z,13.45
2022-12-18T19:54:42.663Z,12.80
2022-12-18T19:57:11.532Z,11.13
2022-12-18T19:59:37.990Z,11.27
2022-12-18T20:02:05.681Z,12.00
2022-12-18T20:04:32.269Z,11.48
2022-12-18T20:06:58.981Z,12.15
2022-12-18T20:09:25.953Z,13.25
2022-12-18T20:11:52.886Z,12.55
2022-12-18T20:14:22.501Z,11.27
2022-12-18T20:16:49.831Z,16.00
2022-12-18T20:19:16.833Z,26.50
2022-12-18T20:21:44.043Z,18.38
2022-12-18T20:24:10.767Z,14.07
2022-12-18T20:26:37.259Z,14.10
2022-12-18T20:29:03.896Z,15.95
2022-12-18T20:31:30.681Z,16.90
2022-12-18T20:34:00.181Z,13.77
2022-12-18T20:36:28.161Z,13.52
2022-12-18T20:38:59.317Z,13.38
2022-12-18T20:41:27.365Z,13.40
2022-12-18T20:44:04.360Z,12.68
2022-12-18T20:46:30.866Z,13.10
2022-12-18T20:48:57.411Z,12.95
2022-12-18T20:51:24.125Z,14.07
2022-12-18T20:53:50.669Z,12.70
2022-12-18T20:56:21.310Z,12.85
2022-12-18T20:58:49.141Z,10.75
2022-12-18T21:01:17.237Z,11.60
2022-12-18T21:03:44.401Z,12.70
2022-12-18T21:06:11.114Z,11.75
2022-12-18T21:08:37.817Z,11.48
2022-12-18T21:11:35.247Z,11.98
2022-12-18T21:14:02.742Z,11.45
2022-12-18T21:16:29.266Z,10.95
2022-12-18T21:18:55.762Z,52.67
2022-12-18T21:21:26.637Z,67.72
2022-12-18T21:23:53.857Z,31.25
2022-12-18T21:26:27.406Z,22.88
2022-12-18T21:31:22.535Z,27.73
2022-12-18T21:33:49.344Z,15.40
2022-12-18T21:36:18.583Z,14.23
2022-12-18T21:38:45.673Z,13.10
2022-12-18T21:41:41.732Z,14.35
2022-12-18T21:44:11.037Z,14.82
2022-12-18T21:46:39.084Z,15.20
2022-12-18T21:49:06.153Z,12.60
2022-12-18T21:51:33.125Z,11.20
2022-12-18T21:53:59.766Z,12.48
2022-12-18T21:56:42.443Z,12.68
2022-12-18T21:59:08.926Z,12.15
2022-12-18T22:01:37.569Z,13.23
2022-12-18T22:04:04.399Z,13.02
2022-12-18T22:06:30.917Z,11.30
2022-12-18T22:08:57.715Z,11.90
2022-12-18T22:11:24.183Z,11.13
2022-12-18T22:13:50.648Z,11.18
2022-12-18T22:16:17.220Z,11.45
2022-12-18T22:18:43.735Z,10.93
2022-12-18T22:21:28.641Z,10.98
2022-12-18T22:24:00.370Z,9.80
2022-12-18T22:26:37.903Z,10.25
2022-12-18T22:29:26.587Z,8.70
2022-12-18T22:31:53.849Z,9.65
2022-12-18T22:34:22.968Z,10.68
2022-12-18T22:36:50.412Z,10.45
2022-12-18T22:39:21.832Z,9.52
2022-12-18T22:41:48.705Z,9.00
2022-12-18T22:44:17.560Z,17.85
2022-12-18T22:46:46.160Z,12.98
2022-12-18T22:49:17.638Z,9.82
2022-12-18T22:51:44.574Z,9.52
2022-12-18T22:54:11.402Z,9.50
2022-12-18T22:56:38.006Z,7.82
2022-12-18T22:59:05.027Z,8.57
2022-12-18T23:01:31.662Z,7.13
2022-12-18T23:03:59.486Z,7.43
2022-12-18T23:06:26.658Z,7.57
2022-12-18T23:08:56.200Z,6.80
2022-12-18T23:11:22.862Z,8.18
2022-12-18T23:13:49.327Z,7.70
2022-12-18T23:16:16.708Z,7.63
2022-12-18T23:18:43.812Z,7.13
2022-12-18T23:21:11.758Z,7.68
2022-12-18T23:23:39.315Z,6.93
2022-12-18T23:26:08.207Z,7.45
2022-12-18T23:28:35.176Z,7.07
2022-12-18T23:31:07.817Z,7.30
2022-12-18T23:33:34.370Z,8.65
2022-12-18T23:36:01.422Z,6.90
2022-12-18T23:38:28.235Z,7.50
2022-12-18T23:40:56.319Z,8.32
2022-12-18T23:43:23.611Z,7.93
2022-12-18T23:45:55.535Z,8.15
2022-12-18T23:48:22.461Z,8.32
2022-12-18T23:50:49.127Z,6.82
2022-12-18T23:53:15.608Z,7.93
2022-12-18T23:55:43.155Z,8.50
2022-12-18T23:58:16.003Z,9.05
